Time;durP1;ratioP1;P1;durP2;ratioP2;P2;SDS_P1;SDS_P2;PMS_P1;PMS_P2;Temp;Humidity;BMP_temperature;BMP_pressure;BME280_temperature;BME280_humidity;BME280_pressure;Samples;Min_cycle;Max_cycle;Signal;HPM_P1;HPM_P2
2023/01/26 00:00:37;;;;;;;45.23;38.70;;;;;20.00;101381.00;;;;2079159;28;20596;-51
2023/01/26 00:01:37;;;;;;;43.20;37.20;;;;;20.00;101384.00;;;;2078754;28;20515;-51
2023/01/26 00:02:37;;;;;;;43.27;36.90;;;;;20.00;101387.00;;;;2079054;28;20218;-51
2023/01/26 00:03:38;;;;;;;42.13;36.37;;;;;20.00;101389.00;;;;2079015;28;20694;-51
2023/01/26 00:04:38;;;;;;;45.77;39.93;;;;;20.00;101385.00;;;;2078395;28;21053;-51
2023/01/26 00:05:38;;;;;;;44.67;36.53;;;;;20.00;101383.00;;;;2078396;28;20701;-51
2023/01/26 00:06:39;;;;;;;43.73;36.57;;;;;20.00;101385.00;;;;2078451;28;20632;-51
2023/01/26 00:07:44;;;;;;;43.23;36.70;;;;;19.90;101381.00;;;;2078160;28;20225;-51
2023/01/26 00:08:45;;;;;;;43.88;36.92;;;;;19.90;101375.00;;;;2077735;28;20225;-50
2023/01/26 00:09:46;;;;;;;43.88;37.38;;;;;20.00;101375.00;;;;2079063;28;20220;-50
2023/01/26 00:10:49;;;;;;;43.30;37.10;;;;;20.00;101375.00;;;;2079147;28;20241;-50
2023/01/26 00:11:49;;;;;;;43.58;37.00;;;;;19.90;101370.00;;;;2079239;28;20241;-51
2023/01/26 00:12:49;;;;;;;42.33;35.50;;;;;19.90;101360.00;;;;2083054;28;20209;-51
2023/01/26 00:13:50;;;;;;;45.30;37.30;;;;;19.90;101358.00;;;;2078921;28;20216;-52
2023/01/26 00:14:50;;;;;;;43.37;36.80;;;;;19.90;101352.00;;;;2078350;28;20218;-51
2023/01/26 00:15:50;;;;;;;45.07;36.90;;;;;19.90;101348.00;;;;2070973;28;20234;-50
2023/01/26 00:16:52;;;;;;;41.70;35.47;;;;;20.00;101343.00;;;;2071011;28;20210;-51
2023/01/26 00:17:52;;;;;;;42.47;36.50;;;;;19.90;101355.00;;;;2070339;28;20313;-50
2023/01/26 00:18:53;;;;;;;41.70;35.30;;;;;19.90;101342.00;;;;2069024;28;20698;-51
2023/01/26 00:19:57;;;;;;;45.07;36.80;;;;;19.90;101339.00;;;;2069017;28;20764;-50
2023/01/26 00:20:58;;;;;;;44.33;37.67;;;;;19.80;101348.00;;;;2072748;28;20233;-52
2023/01/26 00:21:58;;;;;;;41.73;34.40;;;;;19.80;101339.00;;;;2077292;28;20213;-51
2023/01/26 00:22:58;;;;;;;42.60;36.43;;;;;19.80;101338.00;;;;2077969;28;20465;-51
2023/01/26 00:23:59;;;;;;;44.37;37.33;;;;;19.80;101331.00;;;;2078540;28;20225;-50
2023/01/26 00:24:59;;;;;;;43.60;35.90;;;;;19.90;101331.00;;;;2078832;28;20300;-51
2023/01/26 00:26:00;;;;;;;45.40;37.40;;;;;19.90;101331.00;;;;2078886;28;20221;-51
2023/01/26 00:27:00;;;;;;;43.03;36.20;;;;;19.90;101334.00;;;;2077728;28;20214;-51
2023/01/26 00:28:00;;;;;;;40.20;34.77;;;;;19.80;101325.00;;;;2069319;28;20305;-50
2023/01/26 00:29:01;;;;;;;43.50;36.17;;;;;19.80;101322.00;;;;2072812;28;20694;-51
2023/01/26 00:30:01;;;;;;;40.73;34.80;;;;;19.80;101323.00;;;;2078960;28;20202;-51
2023/01/26 00:31:06;;;;;;;42.17;35.90;;;;;19.80;101335.00;;;;2074967;28;20217;-50
2023/01/26 00:32:06;;;;;;;43.33;35.38;;;;;19.80;101322.00;;;;2070646;28;20229;-50
2023/01/26 00:33:07;;;;;;;41.60;35.57;;;;;19.80;101321.00;;;;2070893;28;20245;-51
2023/01/26 00:34:07;;;;;;;40.87;35.87;;;;;19.80;101313.00;;;;2074270;28;20218;-51
2023/01/26 00:35:08;;;;;;;43.13;35.60;;;;;19.80;101324.00;;;;2070496;28;20214;-51
2023/01/26 00:36:08;;;;;;;42.97;35.40;;;;;19.80;101325.00;;;;2070011;28;20280;-51
2023/01/26 00:37:08;;;;;;;43.57;36.90;;;;;19.80;101319.00;;;;2069727;28;20301;-51
2023/01/26 00:38:12;;;;;;;42.07;35.40;;;;;19.80;101320.00;;;;2069825;28;20222;-51
2023/01/26 00:39:12;;;;;;;39.55;33.67;;;;;19.80;101321.00;;;;2075405;28;20591;-50
2023/01/26 00:40:13;;;;;;;43.17;34.67;;;;;19.70;101312.00;;;;2078528;28;20334;-51
2023/01/26 00:42:32;;;;;;;41.60;36.20;;;;;19.80;101307.00;;;;2081164;28;20217;-51
2023/01/26 00:43:33;;;;;;;41.10;34.93;;;;;19.80;101305.00;;;;2077899;28;20237;-50
2023/01/26 00:44:33;;;;;;;39.97;34.60;;;;;19.70;101303.00;;;;2078948;28;20210;-50
2023/01/26 00:45:34;;;;;;;39.90;33.43;;;;;19.70;101303.00;;;;2078476;28;20271;-50
2023/01/26 00:46:36;;;;;;;38.88;34.33;;;;;19.70;101295.00;;;;2078833;28;20237;-50
2023/01/26 00:47:37;;;;;;;44.55;36.38;;;;;19.70;101286.00;;;;2073491;28;20239;-51
2023/01/26 00:48:37;;;;;;;44.00;36.50;;;;;19.70;101297.00;;;;2077955;28;20221;-50
2023/01/26 00:49:37;;;;;;;39.77;35.20;;;;;19.70;101288.00;;;;2078721;28;20220;-51
2023/01/26 00:50:38;;;;;;;39.70;34.10;;;;;19.70;101290.00;;;;2077438;28;20241;-51
2023/01/26 00:51:38;;;;;;;43.30;35.07;;;;;19.70;101293.00;;;;2078613;28;20291;-51
2023/01/26 00:52:39;;;;;;;39.13;33.80;;;;;19.60;101283.00;;;;2074792;28;20231;-50
2023/01/26 00:53:39;;;;;;;39.20;34.77;;;;;19.70;101295.00;;;;2070577;28;20218;-51
2023/01/26 00:54:39;;;;;;;40.10;35.10;;;;;19.70;101296.00;;;;2070576;28;20221;-51
2023/01/26 00:55:40;;;;;;;43.77;35.93;;;;;19.70;101296.00;;;;2070570;28;20686;-51
2023/01/26 00:56:40;;;;;;;39.63;33.17;;;;;19.70;101296.00;;;;2070318;28;20712;-52
2023/01/26 00:57:40;;;;;;;42.27;33.67;;;;;19.70;101295.00;;;;2075279;28;20701;-51
2023/01/26 00:58:41;;;;;;;39.70;33.27;;;;;19.70;101291.00;;;;2072595;28;20718;-51
2023/01/26 00:59:42;;;;;;;39.63;34.30;;;;;19.60;101291.00;;;;2072226;28;20273;-52
2023/01/26 01:00:42;;;;;;;43.93;35.93;;;;;19.60;101286.00;;;;2070687;28;20291;-51
2023/01/26 01:01:43;;;;;;;37.47;32.57;;;;;19.60;101287.00;;;;2078485;28;20494;-51
2023/01/26 01:02:43;;;;;;;39.10;33.80;;;;;19.60;101290.00;;;;2078563;28;20247;-51
2023/01/26 01:03:43;;;;;;;40.20;35.03;;;;;19.60;101292.00;;;;2078384;28;20225;-52
2023/01/26 01:04:44;;;;;;;42.50;35.47;;;;;19.60;101295.00;;;;2078798;28;20217;-51
2023/01/26 01:05:44;;;;;;;38.60;33.70;;;;;19.60;101295.00;;;;2070769;28;20301;-52
2023/01/26 01:06:45;;;;;;;40.17;34.47;;;;;19.60;101299.00;;;;2075815;28;20752;-52
2023/01/26 01:07:45;;;;;;;40.97;34.33;;;;;19.60;101292.00;;;;2078359;28;20654;-50
2023/01/26 01:08:45;;;;;;;42.67;35.27;;;;;19.60;101287.00;;;;2077794;28;20312;-52
2023/01/26 01:09:46;;;;;;;39.73;33.13;;;;;19.60;101287.00;;;;2074242;28;20241;-52
2023/01/26 01:10:46;;;;;;;40.30;34.50;;;;;19.60;101289.00;;;;2070392;28;20210;-51
2023/01/26 01:11:46;;;;;;;38.83;31.57;;;;;19.60;101286.00;;;;2064994;28;20218;-52
2023/01/26 01:12:47;;;;;;;39.43;33.97;;;;;19.60;101285.00;;;;2078385;28;20311;-52
2023/01/26 01:13:47;;;;;;;38.83;32.67;;;;;19.60;101279.00;;;;2068402;28;20240;-51
2023/01/26 01:14:47;;;;;;;38.43;32.67;;;;;19.60;101277.00;;;;2079010;28;20225;-52
2023/01/26 01:15:48;;;;;;;37.63;31.53;;;;;19.60;101280.00;;;;2076934;28;20589;-51
2023/01/26 01:16:48;;;;;;;40.27;34.40;;;;;19.60;101249.00;;;;2070378;28;20579;-51
2023/01/26 01:17:49;;;;;;;38.13;31.70;;;;;19.60;101281.00;;;;2073478;28;20607;-52
2023/01/26 01:18:53;;;;;;;38.80;33.23;;;;;19.60;101284.00;;;;2069355;28;20226;-52
2023/01/26 01:19:54;;;;;;;37.50;31.63;;;;;19.60;101282.00;;;;2076527;28;20225;-51
2023/01/26 01:20:54;;;;;;;38.03;33.03;;;;;19.60;101285.00;;;;2082780;28;20209;-51
2023/01/26 01:21:54;;;;;;;38.33;32.93;;;;;19.60;101281.00;;;;2078588;28;20213;-52
2023/01/26 01:22:55;;;;;;;37.00;32.03;;;;;19.60;101277.00;;;;2078740;28;20206;-52
2023/01/26 01:23:55;;;;;;;40.77;33.20;;;;;19.60;101278.00;;;;2078033;28;20515;-51
2023/01/26 01:24:56;;;;;;;36.87;32.67;;;;;19.50;101286.00;;;;2078283;28;20260;-52
2023/01/26 01:25:57;;;;;;;39.17;32.77;;;;;19.60;101286.00;;;;2077366;28;20290;-51
2023/01/26 01:26:57;;;;;;;36.67;32.58;;;;;19.60;101276.00;;;;2077167;28;20289;-52
2023/01/26 01:27:57;;;;;;;41.67;34.50;;;;;19.50;101277.00;;;;2077027;28;20316;-52
2023/01/26 01:28:58;;;;;;;39.13;32.50;;;;;19.50;101277.00;;;;2075004;28;20213;-52
2023/01/26 01:29:58;;;;;;;39.07;33.23;;;;;19.50;101277.00;;;;2078360;28;20301;-52
2023/01/26 01:30:59;;;;;;;40.10;33.17;;;;;19.50;101285.00;;;;2073610;28;20218;-52
2023/01/26 01:31:59;;;;;;;39.87;33.43;;;;;19.50;101287.00;;;;2075105;28;20211;-52
2023/01/26 01:32:59;;;;;;;38.13;32.00;;;;;19.50;101282.00;;;;2071972;28;20213;-53
2023/01/26 01:33:59;;;;;;;38.27;32.80;;;;;19.50;101282.00;;;;2069946;28;20280;-51
2023/01/26 01:35:00;;;;;;;39.33;33.20;;;;;19.50;101284.00;;;;2069199;28;20293;-52
2023/01/26 01:36:04;;;;;;;38.27;32.10;;;;;19.50;101283.00;;;;2069648;28;20232;-52
2023/01/26 01:37:05;;;;;;;38.65;31.23;;;;;19.50;101286.00;;;;2069115;28;20260;-51
2023/01/26 01:38:05;;;;;;;37.63;31.57;;;;;19.50;101287.00;;;;2068167;28;20238;-51
2023/01/26 01:39:05;;;;;;;39.10;31.70;;;;;19.50;101292.00;;;;2069313;28;20261;-52
2023/01/26 01:40:10;;;;;;;40.10;32.53;;;;;19.50;101292.00;;;;2068917;28;20285;-52
2023/01/26 01:41:11;;;;;;;37.72;31.83;;;;;19.50;101292.00;;;;2068906;28;20714;-51
2023/01/26 01:42:12;;;;;;;41.00;33.83;;;;;19.50;101294.00;;;;2068877;28;20249;-52
2023/01/26 01:43:12;;;;;;;38.37;32.60;;;;;19.50;101289.00;;;;2069851;28;20210;-52
2023/01/26 01:44:17;;;;;;;37.83;32.30;;;;;19.50;101289.00;;;;2069374;28;20213;-52
2023/01/26 01:45:27;;;;;;;35.58;31.23;;;;;19.40;101284.00;;;;2069258;28;20218;-52
2023/01/26 01:46:34;;;;;;;37.03;31.85;;;;;19.40;101290.00;;;;2071494;28;20236;-52
2023/01/26 01:47:34;;;;;;;39.10;31.85;;;;;19.50;101284.00;;;;2069519;28;20233;-51
2023/01/26 01:48:44;;;;;;;37.23;30.83;;;;;19.50;101283.00;;;;2068873;28;20225;-52
2023/01/26 01:49:45;;;;;;;37.08;31.65;;;;;19.40;101283.00;;;;2073440;28;20213;-52
2023/01/26 01:50:46;;;;;;;35.97;30.55;;;;;19.40;101279.00;;;;2068432;28;20810;-53
2023/01/26 01:52:11;;;;;;;37.70;32.30;;;;;19.40;101290.00;;;;2072741;28;20308;-52
2023/01/26 01:53:17;;;;;;;39.72;32.75;;;;;19.40;101282.00;;;;2077563;28;20220;-52
2023/01/26 01:54:20;;;;;;;38.20;31.33;;;;;19.40;101275.00;;;;2084040;28;20228;-52
2023/01/26 01:55:21;;;;;;;37.30;30.77;;;;;19.40;101279.00;;;;2085037;28;20244;-52
2023/01/26 01:56:22;;;;;;;37.97;30.60;;;;;19.40;101264.00;;;;2085723;28;20217;-52
2023/01/26 01:57:27;;;;;;;38.00;31.20;;;;;19.40;101272.00;;;;2084920;28;20212;-52
2023/01/26 01:58:28;;;;;;;36.70;30.33;;;;;19.40;101275.00;;;;2084573;28;20217;-52
2023/01/26 01:59:29;;;;;;;37.40;30.63;;;;;19.40;101280.00;;;;2085092;28;20843;-56
2023/01/26 02:00:29;;;;;;;37.08;31.70;;;;;19.40;101273.00;;;;2085548;28;20271;-52
2023/01/26 02:01:29;;;;;;;35.23;30.37;;;;;19.40;101272.00;;;;2086198;28;20350;-52
2023/01/26 02:02:30;;;;;;;34.87;29.90;;;;;19.40;101267.00;;;;2085744;28;20228;-52
2023/01/26 02:03:30;;;;;;;36.30;30.20;;;;;19.40;101263.00;;;;2085507;28;20217;-51
2023/01/26 02:04:31;;;;;;;34.27;30.20;;;;;19.40;101248.00;;;;2085318;28;20232;-52
2023/01/26 02:05:32;;;;;;;39.33;30.97;;;;;19.30;101268.00;;;;2085534;28;20636;-52
2023/01/26 02:06:41;;;;;;;35.67;29.60;;;;;19.40;101261.00;;;;2081938;28;20917;-51
2023/01/26 02:07:42;;;;;;;38.50;31.65;;;;;19.40;101254.00;;;;2084902;28;20642;-52
2023/01/26 02:08:46;;;;;;;36.50;30.20;;;;;19.40;101263.00;;;;2084358;28;20218;-52
2023/01/26 02:11:17;;;;;;;38.78;31.67;;;;;19.30;101254.00;;;;2085353;28;20197;-51
2023/01/26 02:12:19;;;;;;;37.35;30.20;;;;;19.30;101250.00;;;;2085918;28;20850;-53
2023/01/26 02:13:20;;;;;;;35.97;29.92;;;;;19.30;101236.00;;;;2085291;28;20324;-52
2023/01/26 02:14:20;;;;;;;34.93;29.57;;;;;19.30;101247.00;;;;2085273;28;20291;-53
2023/01/26 02:15:20;;;;;;;35.87;30.50;;;;;19.30;101251.00;;;;2082570;28;20213;-52
2023/01/26 02:16:21;;;;;;;36.57;30.00;;;;;19.30;101245.00;;;;2067825;28;20231;-52
2023/01/26 02:17:21;;;;;;;34.77;28.57;;;;;19.30;101254.00;;;;2085291;28;20293;-52
2023/01/26 02:18:21;;;;;;;37.17;30.07;;;;;19.30;101247.00;;;;2081922;28;20304;-53
2023/01/26 02:19:47;;;;;;;35.57;29.10;;;;;19.30;101251.00;;;;2077622;28;20260;-51
2023/01/26 02:20:55;;;;;;;36.17;30.08;;;;;19.40;101249.00;;;;2084573;28;20227;-51
2023/01/26 02:21:55;;;;;;;35.72;30.00;;;;;19.30;101240.00;;;;2085416;28;20266;-51
2023/01/26 02:22:58;;;;;;;37.23;31.23;;;;;19.40;101242.00;;;;2085409;28;20225;-52
2023/01/26 02:24:16;;;;;;;36.75;29.95;;;;;19.40;101241.00;;;;2085175;28;20213;-52
2023/01/26 02:25:49;;;;;;;36.80;29.48;;;;;19.30;101248.00;;;;2078889;28;20205;-52
2023/01/26 02:26:49;;;;;;;37.03;29.80;;;;;19.30;101245.00;;;;2060504;28;20321;-51
2023/01/26 02:27:50;;;;;;;36.17;30.07;;;;;19.30;101237.00;;;;2072620;28;20241;-52
2023/01/26 02:28:50;;;;;;;37.40;30.10;;;;;19.30;101238.00;;;;2068506;28;20226;-52
2023/01/26 02:29:50;;;;;;;38.37;30.50;;;;;19.30;101252.00;;;;2072760;28;20276;-52
2023/01/26 02:30:51;;;;;;;35.90;29.00;;;;;19.30;101251.00;;;;2061241;28;20795;-52
2023/01/26 02:31:52;;;;;;;35.73;30.30;;;;;19.30;101255.00;;;;2072956;28;20847;-52
2023/01/26 02:32:52;;;;;;;35.22;29.52;;;;;19.30;101246.00;;;;2069178;28;20241;-52
2023/01/26 02:33:53;;;;;;;36.03;29.97;;;;;19.30;101245.00;;;;2073877;28;20277;-52
2023/01/26 02:34:56;;;;;;;37.53;30.03;;;;;19.30;101242.00;;;;2068240;28;20225;-51
2023/01/26 02:35:57;;;;;;;35.33;30.02;;;;;19.30;101240.00;;;;2069858;28;20210;-52
2023/01/26 02:36:58;;;;;;;34.37;29.20;;;;;19.30;101246.00;;;;2069722;28;20214;-52
2023/01/26 02:37:58;;;;;;;34.27;28.80;;;;;19.20;101239.00;;;;2067378;28;20217;-52
2023/01/26 02:39:20;;;;;;;33.40;28.37;;;;;19.20;101245.00;;;;2077845;28;20698;-52
2023/01/26 02:40:20;;;;;;;36.75;29.38;;;;;19.20;101241.00;;;;2080678;28;20221;-51
2023/01/26 02:42:40;;;;;;;36.55;28.90;;;;;19.20;101241.00;;;;2065065;28;20225;-52
2023/01/26 02:43:41;;;;;;;35.28;27.92;;;;;19.20;101243.00;;;;2081967;28;20756;-52
2023/01/26 02:44:41;;;;;;;33.20;28.00;;;;;19.20;101244.00;;;;2077755;28;20217;-52
2023/01/26 02:45:41;;;;;;;33.67;28.10;;;;;19.20;101239.00;;;;2077829;28;20225;-52
2023/01/26 02:46:42;;;;;;;36.63;28.53;;;;;19.20;101237.00;;;;2076849;28;20221;-52
2023/01/26 02:47:43;;;;;;;37.07;29.37;;;;;19.20;101238.00;;;;2077290;28;20218;-52
2023/01/26 02:50:03;;;;;;;36.47;28.77;;;;;19.20;101246.00;;;;2077909;28;20221;-51
2023/01/26 02:51:03;;;;;;;34.47;28.20;;;;;19.20;101238.00;;;;2077443;28;20679;-52
2023/01/26 02:52:04;;;;;;;34.87;27.90;;;;;19.20;101249.00;;;;2077428;28;20237;-52
2023/01/26 02:53:04;;;;;;;37.93;28.90;;;;;19.20;101249.00;;;;2077205;28;20217;-52
2023/01/26 02:54:05;;;;;;;37.07;29.77;;;;;19.20;101246.00;;;;2076841;28;20491;-51
2023/01/26 02:55:21;;;;;;;33.23;27.50;;;;;19.20;101231.00;;;;2077177;28;20311;-52
2023/01/26 02:56:21;;;;;;;34.63;29.13;;;;;19.20;101234.00;;;;2077707;28;20209;-52
2023/01/26 02:57:21;;;;;;;35.77;29.70;;;;;19.20;101222.00;;;;2081660;28;20208;-53
2023/01/26 02:58:22;;;;;;;35.17;28.43;;;;;19.20;101226.00;;;;2076919;28;20252;-52
2023/01/26 02:59:22;;;;;;;36.53;28.97;;;;;19.20;101239.00;;;;2077956;28;20213;-52
2023/01/26 03:00:36;;;;;;;35.23;29.93;;;;;19.10;101234.00;;;;2078009;28;20271;-52
2023/01/26 03:01:36;;;;;;;35.60;29.83;;;;;19.20;101235.00;;;;2077089;28;20222;-52
2023/01/26 03:02:36;;;;;;;34.63;28.63;;;;;19.10;101228.00;;;;2076850;28;20224;-52
2023/01/26 03:03:43;;;;;;;34.93;28.13;;;;;19.10;101227.00;;;;2078125;28;20217;-53
2023/01/26 03:04:44;;;;;;;36.42;29.67;;;;;19.10;101229.00;;;;2074633;28;20256;-53
2023/01/26 03:05:45;;;;;;;37.23;30.20;;;;;19.10;101226.00;;;;2075447;28;20622;-52
2023/01/26 03:06:45;;;;;;;39.90;30.03;;;;;19.10;101227.00;;;;2070617;28;20240;-53
2023/01/26 03:07:45;;;;;;;33.90;27.60;;;;;19.10;101237.00;;;;2071186;28;20462;-54
2023/01/26 03:08:46;;;;;;;37.23;29.80;;;;;19.20;101239.00;;;;2070336;28;20218;-54
2023/01/26 03:09:46;;;;;;;32.03;27.93;;;;;19.10;101235.00;;;;2070249;28;20230;-54
2023/01/26 03:10:46;;;;;;;34.03;28.03;;;;;19.00;101237.00;;;;2073909;28;20214;-54
2023/01/26 03:11:47;;;;;;;36.67;28.40;;;;;19.10;101231.00;;;;2079502;28;20256;-52
2023/01/26 03:12:47;;;;;;;36.47;29.73;;;;;19.10;101233.00;;;;2079945;28;20245;-53
2023/01/26 03:13:47;;;;;;;37.40;30.17;;;;;19.10;101244.00;;;;2082334;28;20218;-53
2023/01/26 03:15:33;;;;;;;34.90;28.43;;;;;19.10;101235.00;;;;2079419;28;20252;-54
2023/01/26 03:16:10;;;;;;;32.90;27.38;;;;;19.10;101226.00;;;;2071299;28;20221;-53
2023/01/26 03:17:10;;;;;;;35.00;28.85;;;;;19.10;101232.00;;;;2070862;28;20816;-54
2023/01/26 03:27:39;;;;;;;36.88;29.15;;;;;19.00;101217.00;;;;2075062;28;20249;-52
2023/01/26 03:28:40;;;;;;;33.92;27.58;;;;;19.00;101217.00;;;;2077484;28;20283;-52
2023/01/26 03:29:40;;;;;;;34.27;28.60;;;;;19.00;101216.00;;;;2085581;28;20631;-52
2023/01/26 03:30:40;;;;;;;34.77;28.83;;;;;19.10;101219.00;;;;2087546;28;21196;-53
2023/01/26 03:31:41;;;;;;;37.70;29.80;;;;;19.00;101219.00;;;;2086437;28;20771;-53
2023/01/26 03:32:41;;;;;;;33.03;27.73;;;;;19.00;101222.00;;;;2081006;28;21128;-54
2023/01/26 03:33:41;;;;;;;36.53;28.50;;;;;19.10;101216.00;;;;2086695;28;20255;-52
2023/01/26 03:34:42;;;;;;;34.80;28.87;;;;;19.00;101224.00;;;;2086749;28;20464;-56
2023/01/26 03:35:42;;;;;;;36.10;28.23;;;;;19.00;101220.00;;;;2082579;28;20218;-53
2023/01/26 03:36:43;;;;;;;34.67;29.23;;;;;19.00;101216.00;;;;2084959;28;20216;-56
2023/01/26 03:37:43;;;;;;;37.93;29.60;;;;;19.00;101217.00;;;;2083475;28;20212;-53
2023/01/26 03:38:43;;;;;;;37.00;29.30;;;;;19.00;101224.00;;;;2086285;28;20213;-53
2023/01/26 03:56:48;;;;;;;34.85;27.27;;;;;19.00;101213.00;;;;2078613;28;20209;-51
2023/01/26 03:57:49;;;;;;;37.23;28.17;;;;;19.00;101212.00;;;;2078906;28;20210;-51
2023/01/26 03:58:55;;;;;;;33.90;28.20;;;;;18.90;101212.00;;;;2078205;28;20217;-52
2023/01/26 03:59:56;;;;;;;35.00;27.75;;;;;18.90;101223.00;;;;2079129;28;20709;-53
2023/01/26 04:00:56;;;;;;;33.60;27.13;;;;;19.00;101212.00;;;;2079249;28;20214;-52
2023/01/26 04:08:35;;;;;;;38.47;29.98;;;;;19.00;101218.00;;;;2085563;28;20307;-53
2023/01/26 04:09:36;;;;;;;34.03;28.20;;;;;18.90;101217.00;;;;2086343;28;20213;-52
2023/01/26 04:10:36;;;;;;;34.67;26.43;;;;;18.90;101223.00;;;;2085600;28;20221;-52
2023/01/26 04:11:36;;;;;;;33.67;26.70;;;;;18.90;101211.00;;;;2086789;28;20444;-53
2023/01/26 04:12:37;;;;;;;33.40;27.70;;;;;18.90;101212.00;;;;2087230;28;20248;-53
2023/01/26 04:21:34;;;;;;;34.10;27.17;;;;;18.90;101219.00;;;;2082844;28;20224;-51
2023/01/26 04:22:39;;;;;;;32.33;26.48;;;;;18.90;101211.00;;;;2082901;28;20832;-52
2023/01/26 04:23:39;;;;;;;35.15;28.08;;;;;18.90;101211.00;;;;2079216;28;20254;-52
2023/01/26 04:24:39;;;;;;;32.70;27.67;;;;;18.90;101208.00;;;;2078875;28;20682;-51
2023/01/26 04:25:40;;;;;;;34.40;27.07;;;;;18.90;101219.00;;;;2086707;28;21177;-52
2023/01/26 04:26:41;;;;;;;31.83;25.90;;;;;18.90;101207.00;;;;2086935;28;20967;-52
2023/01/26 04:27:41;;;;;;;32.72;26.33;;;;;18.80;101208.00;;;;2082052;28;20255;-53
2023/01/26 04:28:41;;;;;;;33.63;27.67;;;;;18.80;101156.00;;;;2082993;28;20264;-51
2023/01/26 04:29:42;;;;;;;32.63;27.27;;;;;18.90;101212.00;;;;2082819;28;20231;-51
2023/01/26 04:30:42;;;;;;;31.67;26.07;;;;;18.80;101210.00;;;;2079154;28;20225;-52
2023/01/26 04:31:42;;;;;;;32.50;26.77;;;;;18.80;101214.00;;;;2081801;28;20795;-52
2023/01/26 04:32:44;;;;;;;32.27;26.37;;;;;18.90;101207.00;;;;2080190;28;20225;-52
2023/01/26 04:33:45;;;;;;;33.70;26.52;;;;;18.90;101205.00;;;;2079048;28;20226;-53
2023/01/26 04:34:45;;;;;;;32.80;26.00;;;;;18.80;101211.00;;;;2082606;28;21084;-52
2023/01/26 04:35:45;;;;;;;30.13;24.50;;;;;18.80;101199.00;;;;2085029;28;20220;-51
2023/01/26 04:36:46;;;;;;;32.53;26.73;;;;;18.80;101207.00;;;;2083462;28;20323;-52
2023/01/26 04:37:46;;;;;;;34.50;26.93;;;;;18.80;101208.00;;;;2086790;28;20217;-52
2023/01/26 04:38:48;;;;;;;30.90;25.50;;;;;18.80;101214.00;;;;2078505;28;20221;-52
2023/01/26 04:39:48;;;;;;;31.98;26.15;;;;;18.80;101215.00;;;;2081809;28;20224;-51
2023/01/26 04:40:53;;;;;;;32.23;26.83;;;;;18.80;101209.00;;;;2083900;28;20217;-52
2023/01/26 04:41:53;;;;;;;29.00;24.65;;;;;18.80;101204.00;;;;2077271;28;20224;-54
2023/01/26 04:42:53;;;;;;;31.40;24.87;;;;;18.80;101212.00;;;;2078874;28;20236;-53
2023/01/26 04:43:53;;;;;;;33.27;27.00;;;;;18.80;101199.00;;;;2085452;28;20227;-54
2023/01/26 04:44:54;;;;;;;28.80;24.37;;;;;18.80;101201.00;;;;2082852;28;20205;-51
2023/01/26 04:45:58;;;;;;;31.50;25.40;;;;;18.80;101200.00;;;;2085420;28;20209;-52
2023/01/26 04:46:58;;;;;;;33.33;26.40;;;;;18.80;101200.00;;;;2086850;28;20248;-52
2023/01/26 04:47:58;;;;;;;32.00;24.90;;;;;18.80;101197.00;;;;2086454;28;20273;-52
2023/01/26 04:48:59;;;;;;;30.00;24.97;;;;;18.80;101199.00;;;;2079414;28;20213;-53
2023/01/26 04:49:59;;;;;;;28.53;24.93;;;;;18.80;101201.00;;;;2080131;28;20214;-51
2023/01/26 04:51:02;;;;;;;35.03;26.37;;;;;18.80;101199.00;;;;2086325;28;20213;-52
2023/01/26 04:52:02;;;;;;;30.85;25.02;;;;;18.80;101192.00;;;;2080117;28;20216;-51
2023/01/26 04:53:04;;;;;;;30.97;24.67;;;;;18.80;101194.00;;;;2086534;28;20224;-52
2023/01/26 04:54:05;;;;;;;31.27;25.17;;;;;18.80;101195.00;;;;2082090;28;20624;-52
2023/01/26 04:55:05;;;;;;;31.33;25.27;;;;;18.80;101196.00;;;;2084864;28;20223;-52
2023/01/26 04:56:07;;;;;;;30.10;23.90;;;;;18.80;101192.00;;;;2083925;28;20214;-53
2023/01/26 04:57:08;;;;;;;27.50;23.63;;;;;18.80;101197.00;;;;2086773;28;20581;-52
2023/01/26 04:58:08;;;;;;;30.87;24.90;;;;;18.80;101203.00;;;;2082754;28;20216;-52
2023/01/26 04:59:08;;;;;;;29.00;23.23;;;;;18.80;101195.00;;;;2084854;28;20760;-51
2023/01/26 05:00:10;;;;;;;30.87;24.60;;;;;18.80;101197.00;;;;2078084;28;21153;-52
2023/01/26 05:01:11;;;;;;;29.48;24.00;;;;;18.80;101200.00;;;;2082566;28;20213;-51
2023/01/26 05:02:11;;;;;;;30.37;24.80;;;;;18.80;101200.00;;;;2083190;28;20217;-51
2023/01/26 05:03:11;;;;;;;31.13;25.23;;;;;18.80;101206.00;;;;2086909;28;20236;-51
2023/01/26 05:04:12;;;;;;;31.83;25.73;;;;;18.80;101197.00;;;;2083190;28;20219;-51
2023/01/26 05:05:12;;;;;;;27.60;22.43;;;;;18.80;101199.00;;;;2079171;28;20213;-53
2023/01/26 05:06:12;;;;;;;31.63;24.87;;;;;18.80;101197.00;;;;2082411;28;20212;-52
2023/01/26 05:07:13;;;;;;;28.43;23.43;;;;;18.80;101201.00;;;;2082149;28;20310;-53
2023/01/26 05:08:13;;;;;;;30.30;24.70;;;;;18.70;101201.00;;;;2084784;28;20601;-52
2023/01/26 05:09:13;;;;;;;29.70;24.27;;;;;18.70;101206.00;;;;2086894;28;20217;-52
2023/01/26 05:10:14;;;;;;;29.20;24.20;;;;;18.70;101202.00;;;;2083606;28;20232;-53
2023/01/26 05:11:14;;;;;;;26.37;21.70;;;;;18.70;101198.00;;;;2085218;28;20266;-52
2023/01/26 05:12:33;;;;;;;29.73;24.17;;;;;18.70;101200.00;;;;2085322;28;20219;-51
2023/01/26 05:13:34;;;;;;;30.17;23.98;;;;;18.70;101201.00;;;;2082304;28;20220;-53
2023/01/26 05:14:35;;;;;;;28.98;24.20;;;;;18.70;101199.00;;;;2085523;28;20263;-53
2023/01/26 05:15:35;;;;;;;30.03;23.10;;;;;18.70;101198.00;;;;2086566;28;20613;-52
2023/01/26 05:16:35;;;;;;;26.73;22.67;;;;;18.70;101207.00;;;;2081376;28;20561;-52
2023/01/26 05:17:36;;;;;;;26.00;21.67;;;;;18.70;101199.00;;;;2078195;28;20625;-52
2023/01/26 05:18:36;;;;;;;26.47;22.83;;;;;18.70;101202.00;;;;2079916;28;20594;-52
2023/01/26 05:19:36;;;;;;;28.90;23.60;;;;;18.70;101202.00;;;;2082342;28;20224;-51
2023/01/26 05:20:37;;;;;;;27.43;22.57;;;;;18.70;101196.00;;;;2083282;28;20244;-52
2023/01/26 05:21:37;;;;;;;28.33;22.50;;;;;18.70;101201.00;;;;2085107;28;20247;-52
2023/01/26 05:22:37;;;;;;;25.73;21.27;;;;;18.70;101208.00;;;;2085262;28;20223;-53
2023/01/26 05:23:38;;;;;;;28.20;22.63;;;;;18.70;101201.00;;;;2086395;28;20208;-53
2023/01/26 05:24:38;;;;;;;28.03;22.63;;;;;18.70;101198.00;;;;2082094;28;20255;-52
2023/01/26 05:25:39;;;;;;;30.00;23.37;;;;;18.70;101199.00;;;;2078348;28;20305;-51
2023/01/26 05:26:39;;;;;;;26.13;21.57;;;;;18.70;101204.00;;;;2084974;28;20224;-52
2023/01/26 05:27:39;;;;;;;28.83;22.60;;;;;18.70;101200.00;;;;2083429;28;20220;-52
2023/01/26 05:28:39;;;;;;;27.27;23.23;;;;;18.60;101201.00;;;;2078550;28;20246;-52
2023/01/26 05:29:40;;;;;;;26.27;21.87;;;;;18.60;101203.00;;;;2086324;28;20232;-53
2023/01/26 05:30:40;;;;;;;26.23;22.07;;;;;18.60;101200.00;;;;2085303;28;20321;-52
2023/01/26 05:31:40;;;;;;;25.27;20.90;;;;;18.70;101202.00;;;;2083688;28;20303;-51
2023/01/26 05:32:41;;;;;;;26.97;23.63;;;;;18.70;101201.00;;;;2081782;28;20225;-52
2023/01/26 05:33:41;;;;;;;24.73;21.47;;;;;18.70;101204.00;;;;2077833;28;20225;-52
2023/01/26 05:34:42;;;;;;;24.77;19.80;;;;;18.70;101201.00;;;;2077631;28;20277;-53
2023/01/26 05:35:42;;;;;;;26.80;22.03;;;;;18.70;101208.00;;;;2088859;28;20227;-53
2023/01/26 05:36:42;;;;;;;25.70;21.10;;;;;18.70;101205.00;;;;2084813;28;20217;-51
2023/01/26 05:37:44;;;;;;;27.03;21.70;;;;;18.70;101213.00;;;;2084492;28;20342;-53
2023/01/26 05:38:44;;;;;;;24.23;21.27;;;;;18.70;101211.00;;;;2083775;28;20226;-52
2023/01/26 05:39:45;;;;;;;24.40;20.73;;;;;18.70;101206.00;;;;2080075;28;20224;-53
2023/01/26 05:40:45;;;;;;;26.47;22.30;;;;;18.70;101211.00;;;;2078700;28;20222;-51
2023/01/26 05:41:45;;;;;;;26.77;21.77;;;;;18.70;101213.00;;;;2083138;28;20219;-52
2023/01/26 05:42:46;;;;;;;27.20;22.80;;;;;18.70;101217.00;;;;2086585;28;20217;-52
2023/01/26 05:43:46;;;;;;;25.57;21.60;;;;;18.60;101218.00;;;;2086653;28;20228;-53